LTAD/ANK METAR and TAF weather

Enter ICAO airport designator
Station Type Date Time Source
LTAD METAR 2021/09/28 02:50 UTC NOAA

LTAD 280250Z VRB01KT CAVOK 08/06 Q1017 NOSIG RMK RWY29 00000KT


Station Type Date Time Source
LTAD Decoded METAR 2021/09/28 02:50 UTC NOAA

Ankara / Etimesgut, Turkey (LTAD) 39-57N 032-41E 806M
Sep 27, 2021 - 10:50 PM EDT / 2021.09.28 0250 UTC
Wind: Variable at 1 MPH (1 KT):0
Visibility: greater than 7 mile(s):0
Temperature: 46 F (8 C)
Dew Point: 42 F (6 C)
Relative Humidity: 87%
Pressure (altimeter): 30.03 in. Hg (1017 hPa)
ob: LTAD 280250Z VRB01KT CAVOK 08/06 Q1017 NOSIG RMK RWY29 00000KT
cycle: 3

Station Type Date Time Source
LTAD TAF UTC NOAA

Error!

Example: see airport list